Time;durP1;ratioP1;P1;durP2;ratioP2;P2;SDS_P1;SDS_P2;PMS_P1;PMS_P2;Temp;Humidity;BMP_temperature;BMP_pressure;BME280_temperature;BME280_humidity;BME280_pressure;Samples;Min_cycle;Max_cycle;Signal;HPM_P1;HPM_P2
2022/03/12 00:04:34;;;;;;;4.53;4.07;;;;;;;-7.54;76.01;101385.72;31519471;28;20059;-81
2022/03/12 00:19:36;;;;;;;5.23;4.00;;;;;;;-7.70;75.84;101381.53;31551283;28;20048;-81
2022/03/12 00:34:38;;;;;;;11.03;4.83;;;;;;;-7.73;76.03;101379.41;31539048;28;20390;-81
2022/03/12 00:49:40;;;;;;;7.50;5.33;;;;;;;-7.74;75.62;101372.56;31484297;28;20538;-76
2022/03/12 01:04:44;;;;;;;8.50;5.03;;;;;;;-7.98;75.53;101370.47;31480531;28;20052;-78
2022/03/12 01:19:46;;;;;;;4.97;4.47;;;;;;;-7.92;75.24;101372.03;31480741;28;20169;-77
2022/03/12 01:34:48;;;;;;;8.83;4.90;;;;;;;-7.97;75.04;101379.16;31485023;28;20059;-77
2022/03/12 01:49:53;;;;;;;5.60;3.40;;;;;;;-8.20;73.61;101398.91;31485059;28;20049;-78
2022/03/12 02:04:57;;;;;;;4.43;4.00;;;;;;;-8.28;73.28;101400.22;31504738;28;20064;-76
2022/03/12 02:19:59;;;;;;;3.97;3.60;;;;;;;-8.31;71.90;101407.84;31494755;28;20053;-77
2022/03/12 02:35:02;;;;;;;9.97;4.30;;;;;;;-8.42;71.87;101412.31;31497977;28;20098;-76
2022/03/12 02:50:07;;;;;;;7.70;4.03;;;;;;;-8.68;71.00;101403.56;31505703;28;20106;-77
2022/03/12 03:05:29;;;;;;;3.60;3.30;;;;;;;-8.70;71.00;101400.38;31486848;28;20057;-77
2022/03/12 03:20:33;;;;;;;4.07;3.73;;;;;;;-8.73;69.67;101402.75;31487145;28;20058;-77
2022/03/12 03:35:38;;;;;;;4.60;3.83;;;;;;;-8.90;68.47;101410.84;31493264;28;20056;-76
2022/03/12 03:50:41;;;;;;;;;;;;;;;-8.91;68.44;101430.31;31481901;28;20055;-76
2022/03/12 04:05:43;;;;;;;4.50;4.17;;;;;;;-8.95;68.70;101429.22;31505427;28;20298;-77
2022/03/12 04:20:47;;;;;;;5.47;4.00;;;;;;;-8.60;69.22;101441.75;31486382;28;20052;-77
2022/03/12 04:35:50;;;;;;;3.83;3.57;;;;;;;-8.33;68.64;101446.88;31479113;28;20052;-77
2022/03/12 04:50:53;;;;;;;6.00;4.40;;;;;;;-8.24;68.86;101458.44;31477531;28;20094;-77
2022/03/12 05:05:56;;;;;;;7.00;5.13;;;;;;;-8.10;68.08;101464.81;31474102;28;20098;-77
2022/03/12 05:20:58;;;;;;;6.47;3.87;;;;;;;-7.37;65.25;101452.19;31495964;28;20519;-77
2022/03/12 05:36:00;;;;;;;3.57;2.90;;;;;;;-6.15;60.88;101454.44;31498820;28;20451;-77
2022/03/12 05:51:04;;;;;;;5.07;3.70;;;;;;;-5.69;57.71;101470.75;31504999;28;20082;-77
2022/03/12 06:06:08;;;;;;;4.70;3.80;;;;;;;-4.93;56.57;101471.91;31500405;28;20060;-77
2022/03/12 06:21:11;;;;;;;3.87;3.53;;;;;;;-2.95;51.96;101464.53;31516130;28;20053;-78
2022/03/12 06:36:13;;;;;;;5.80;3.23;;;;;;;-1.63;47.20;101460.94;31508643;28;20563;-74
2022/03/12 06:51:15;;;;;;;5.40;3.80;;;;;;;-1.31;45.05;101455.34;31498244;28;20048;-78
2022/03/12 07:06:18;;;;;;;6.00;3.70;;;;;;;-0.55;44.33;101463.97;31503371;28;20064;-78
2022/03/12 07:21:20;;;;;;;8.93;4.03;;;;;;;0.55;41.97;101458.19;31484685;28;20056;-78
2022/03/12 07:36:22;;;;;;;6.90;3.83;;;;;;;1.30;40.38;101440.63;31481567;28;20048;-78
2022/03/12 07:51:26;;;;;;;4.70;3.30;;;;;;;1.77;39.51;101448.53;31492041;28;20778;-79
2022/03/12 08:06:31;;;;;;;5.57;3.53;;;;;;;2.39;38.15;101437.75;31491160;28;20139;-76
2022/03/12 08:21:34;;;;;;;7.67;2.80;;;;;;;2.42;37.19;101435.53;31489674;28;20138;-77
2022/03/12 08:36:37;;;;;;;3.37;2.33;;;;;;;3.13;34.78;101429.84;31473172;28;20646;-76
2022/03/12 08:51:41;;;;;;;3.50;2.70;;;;;;;3.60;34.20;101417.50;31479704;28;20067;-76
2022/03/12 09:06:44;;;;;;;8.33;2.70;;;;;;;4.01;33.15;101415.59;31474948;28;20484;-77
2022/03/12 09:21:46;;;;;;;4.23;2.40;;;;;;;4.32;32.16;101391.50;31459413;28;20049;-76
2022/03/12 09:36:48;;;;;;;2.90;1.97;;;;;;;4.13;30.98;101394.06;31466976;28;20044;-76
2022/03/12 09:51:50;;;;;;;1.83;1.63;;;;;;;3.82;30.86;101380.50;31474363;28;20102;-77
2022/03/12 10:06:53;;;;;;;2.43;1.87;;;;;;;4.76;31.43;101370.69;31464156;28;20059;-76
2022/03/12 10:21:55;;;;;;;3.93;2.20;;;;;;;5.36;31.97;101359.75;31481091;28;20139;-77
2022/03/12 10:36:57;;;;;;;4.60;2.10;;;;;;;5.00;32.66;101345.50;31494661;28;20056;-76
2022/03/12 10:52:05;;;;;;;13.00;2.53;;;;;;;5.05;31.67;101342.53;31507710;28;20051;-78
2022/03/12 11:07:29;;;;;;;3.00;2.30;;;;;;;5.07;32.35;101328.75;31508531;28;20052;-76
2022/03/12 11:22:31;;;;;;;3.07;2.10;;;;;;;4.92;31.48;101306.13;31494512;28;20059;-77
2022/03/12 11:37:36;;;;;;;4.70;2.73;;;;;;;5.33;30.47;101298.53;31484799;28;20048;-76
2022/03/12 11:52:39;;;;;;;2.33;1.97;;;;;;;6.06;29.29;101303.81;31488240;28;20059;-77
2022/03/12 12:07:45;;;;;;;3.50;1.63;;;;;;;6.97;27.91;101297.56;31487135;28;20059;-77
2022/03/12 12:22:48;;;;;;;2.30;1.57;;;;;;;4.45;29.68;101298.09;31480948;28;20048;-78
2022/03/12 12:37:51;;;;;;;1.80;1.43;;;;;;;1.85;31.76;101310.34;31469868;28;20074;-77
2022/03/12 12:53:18;;;;;;;3.17;1.70;;;;;;;0.67;34.44;101306.00;31491047;28;20059;-77
2022/03/12 13:08:25;;;;;;;8.23;2.23;;;;;;;0.32;35.45;101316.03;31485906;28;20111;-76
2022/03/12 13:23:34;;;;;;;3.23;1.90;;;;;;;0.16;34.67;101306.19;31484943;28;20048;-78
2022/03/12 13:38:37;;;;;;;2.03;1.50;;;;;;;0.07;35.19;101297.41;31480843;28;20052;-78
2022/03/12 13:53:39;;;;;;;3.10;1.90;;;;;;;-0.24;34.45;101286.97;31502503;28;20396;-78
2022/03/12 14:08:47;;;;;;;2.13;1.30;;;;;;;-0.34;34.47;101277.41;31506369;28;20053;-77
2022/03/12 14:23:49;;;;;;;1.60;1.50;;;;;;;-0.51;34.96;101277.41;31504022;28;20480;-78
2022/03/12 14:38:52;;;;;;;2.97;1.53;;;;;;;-0.70;35.41;101269.72;31507746;28;20052;-76
2022/03/12 14:53:54;;;;;;;5.37;1.90;;;;;;;-0.89;36.15;101262.03;31522273;28;20040;-77
2022/03/12 15:09:04;;;;;;;5.20;1.90;;;;;;;-0.76;36.08;101266.44;31531536;28;20479;-76
2022/03/12 15:24:11;;;;;;;2.40;1.40;;;;;;;-0.89;37.01;101266.56;31487546;28;20045;-76
2022/03/12 15:39:13;;;;;;;3.10;1.63;;;;;;;-0.87;39.38;101273.16;31480917;28;20064;-77
2022/03/12 15:54:16;;;;;;;5.47;1.90;;;;;;;-0.62;37.89;101276.94;31501267;28;20053;-78
2022/03/12 16:09:18;;;;;;;3.73;2.10;;;;;;;-0.63;38.44;101290.59;31502025;28;20133;-77
2022/03/12 16:24:21;;;;;;;3.53;1.70;;;;;;;-0.65;38.46;101293.56;31505417;28;20439;-78
2022/03/12 16:39:23;;;;;;;3.60;2.43;;;;;;;-0.96;40.66;101304.38;31478140;28;20059;-79
2022/03/12 16:54:26;;;;;;;4.70;2.63;;;;;;;-1.09;40.79;101316.72;31483678;28;20460;-79
2022/03/12 17:09:28;;;;;;;3.07;2.30;;;;;;;-1.01;39.73;101312.50;31475024;28;20060;-77
2022/03/12 17:24:31;;;;;;;3.83;2.77;;;;;;;-1.34;40.92;101306.78;31494552;28;20055;-79
2022/03/12 17:39:34;;;;;;;4.40;2.73;;;;;;;-1.44;40.89;101310.50;31488015;28;20439;-78
2022/03/12 17:54:37;;;;;;;4.00;2.67;;;;;;;-1.33;41.31;101310.22;31504905;28;20484;-77
2022/03/12 18:09:41;;;;;;;5.57;2.97;;;;;;;-1.44;41.10;101301.75;31501891;28;20415;-77
2022/03/12 18:24:44;;;;;;;4.80;2.33;;;;;;;-1.49;40.95;101291.22;31501989;28;20098;-78
2022/03/12 18:39:53;;;;;;;2.17;1.80;;;;;;;-1.54;41.39;101278.81;31489222;28;20055;-77
2022/03/12 18:54:55;;;;;;;5.47;2.70;;;;;;;-1.62;42.77;101292.09;31529207;28;20887;-79
2022/03/12 19:09:57;;;;;;;4.83;2.43;;;;;;;-1.80;41.28;101275.25;31499733;28;20053;-77
2022/03/12 19:24:59;;;;;;;8.30;3.90;;;;;;;-1.92;42.50;101270.53;31499704;28;20466;-78
2022/03/12 19:40:06;;;;;;;7.60;4.20;;;;;;;-1.84;42.44;101261.00;31483364;28;20044;-78
2022/03/12 19:55:11;;;;;;;7.53;4.20;;;;;;;-1.81;44.31;101247.84;31490759;28;20091;-78
2022/03/12 20:10:14;;;;;;;6.73;3.50;;;;;;;-2.02;46.14;101251.34;31494757;28;20052;-78
2022/03/12 20:25:16;;;;;;;9.40;4.20;;;;;;;-2.18;44.17;101235.00;31502381;28;20561;-77
2022/03/12 20:40:18;;;;;;;6.87;3.83;;;;;;;-2.27;44.08;101234.16;31485565;28;20059;-78
2022/03/12 20:55:22;;;;;;;10.07;4.70;;;;;;;-2.16;44.59;101224.84;31489034;28;20060;-78
2022/03/12 21:10:24;;;;;;;9.57;4.57;;;;;;;-2.16;43.70;101224.84;31483379;28;20098;-77
2022/03/12 21:25:29;;;;;;;11.33;4.53;;;;;;;-2.21;44.47;101224.97;31463710;28;20102;-76
2022/03/12 21:40:34;;;;;;;7.50;4.43;;;;;;;-2.18;45.85;101216.38;31472672;28;20135;-78
2022/03/12 21:55:36;;;;;;;11.57;5.17;;;;;;;-2.28;46.75;101216.63;31482890;28;20056;-77
2022/03/12 22:10:38;;;;;;;12.33;5.90;;;;;;;-2.38;47.93;101217.69;31502586;28;20492;-76
2022/03/12 22:25:41;;;;;;;9.13;4.60;;;;;;;-2.51;44.99;101214.00;31495993;28;20415;-76
2022/03/12 22:40:48;;;;;;;13.33;6.03;;;;;;;-2.75;49.04;101213.50;31492855;28;20052;-77
2022/03/12 22:55:50;;;;;;;13.93;6.20;;;;;;;-2.96;51.60;101220.38;31500568;28;20060;-76
2022/03/12 23:10:52;;;;;;;16.97;9.00;;;;;;;-3.30;48.71;101226.16;31496101;28;20041;-78
2022/03/12 23:25:58;;;;;;;22.63;9.70;;;;;;;-3.17;49.83;101228.78;31505803;28;20056;-77
2022/03/12 23:41:01;;;;;;;;;;;;;;;-3.58;52.01;101228.06;31519698;28;20508;-77
2022/03/12 23:56:09;;;;;;;17.37;9.37;;;;;;;-3.85;51.41;101221.69;31500823;28;19924;-77
